createdAt,value
2023-04-23T00:01:29.179Z,101553.63
2023-04-23T00:06:34.725Z,101562.06
2023-04-23T00:11:39.021Z,101555.84
2023-04-23T00:16:43.497Z,101572.66
2023-04-23T00:21:47.618Z,101550.94
2023-04-23T00:26:53.982Z,101570.25
2023-04-23T00:31:59.199Z,101563.09
2023-04-23T00:37:07.108Z,101572.03
2023-04-23T00:42:13.131Z,101565.34
2023-04-23T00:47:19.083Z,101550.84
2023-04-23T00:52:23.480Z,101538.69
2023-04-23T00:57:28.387Z,101562.41
2023-04-23T01:02:32.978Z,101554.19
2023-04-23T01:07:38.642Z,101565.94
2023-04-23T01:12:42.584Z,101562.97
2023-04-23T01:17:47.231Z,101557.59
2023-04-23T01:22:54.851Z,101552.38
2023-04-23T01:27:59.468Z,101471.53
2023-04-23T01:33:06.312Z,101554.31
2023-04-23T01:38:12.678Z,101553.00
2023-04-23T01:43:18.222Z,101553.66
2023-04-23T01:48:22.555Z,101556.38
2023-04-23T01:53:26.662Z,101554.00
2023-04-23T01:58:30.685Z,101543.06
2023-04-23T02:03:35.484Z,101527.00
2023-04-23T02:08:40.699Z,101557.63
2023-04-23T02:13:44.724Z,101557.28
2023-04-23T02:18:48.681Z,101556.59
2023-04-23T02:23:54.362Z,101557.31
2023-04-23T02:28:58.339Z,101546.25
2023-04-23T02:34:02.513Z,101469.38
2023-04-23T02:39:07.285Z,101541.09
2023-04-23T02:44:11.423Z,101538.56
2023-04-23T02:49:15.527Z,101530.28
2023-04-23T02:54:19.727Z,101527.75
2023-04-23T02:59:24.116Z,101521.41
2023-04-23T03:04:28.475Z,101527.66
2023-04-23T03:09:32.917Z,101516.31
2023-04-23T03:14:37.198Z,101514.88
2023-04-23T03:19:41.945Z,101490.25
2023-04-23T03:24:46.844Z,101504.34
2023-04-23T03:30:10.681Z,101502.03
2023-04-23T03:35:14.849Z,101490.22
2023-04-23T03:40:22.849Z,101489.94
2023-04-23T03:45:31.984Z,101480.19
2023-04-23T03:50:39.706Z,101495.22
2023-04-23T03:56:01.164Z,101495.31
2023-04-23T04:01:08.435Z,101471.38
2023-04-23T04:06:12.844Z,101485.47
2023-04-23T04:11:17.013Z,101495.56
2023-04-23T04:16:21.020Z,101488.09
2023-04-23T04:21:25.117Z,101452.81
2023-04-23T04:26:30.264Z,101466.50
2023-04-23T04:31:35.612Z,101475.81
2023-04-23T04:36:40.062Z,101476.66
2023-04-23T04:41:44.378Z,101475.72
2023-04-23T04:46:48.943Z,101464.03
2023-04-23T04:51:54.938Z,101446.56
2023-04-23T04:56:58.820Z,101444.44
2023-04-23T05:02:02.820Z,101448.84
2023-04-23T05:07:06.908Z,101434.81
2023-04-23T05:12:10.846Z,101408.63
2023-04-23T05:17:14.768Z,101425.28
2023-04-23T05:22:18.917Z,101411.31
2023-04-23T05:27:23.062Z,101407.31
2023-04-23T05:32:27.362Z,101400.13
2023-04-23T05:37:31.743Z,101406.56
2023-04-23T05:42:37.691Z,101396.59
2023-04-23T05:47:41.928Z,101389.56
2023-04-23T05:52:46.227Z,101378.91
2023-04-23T05:57:50.242Z,101374.47
2023-04-23T06:02:54.719Z,101370.66
2023-04-23T06:07:59.439Z,101372.56
2023-04-23T06:13:03.787Z,101359.72
2023-04-23T06:18:08.051Z,101368.25
2023-04-23T06:23:14.265Z,101352.28
2023-04-23T06:28:18.181Z,101364.03
2023-04-23T06:33:48.009Z,101353.97
2023-04-23T06:38:52.224Z,101342.66
2023-04-23T06:43:56.622Z,101334.53
2023-04-23T06:49:13.282Z,101333.50
2023-04-23T06:54:17.328Z,101317.16
2023-04-23T06:59:21.492Z,101317.53
2023-04-23T07:04:29.672Z,101309.34
2023-04-23T07:09:33.823Z,101303.25
2023-04-23T07:14:37.866Z,101292.63
2023-04-23T07:19:41.720Z,101302.31
2023-04-23T07:24:45.910Z,101297.63
2023-04-23T07:29:49.859Z,101283.03
2023-04-23T07:34:53.921Z,101283.25
2023-04-23T07:39:58.173Z,101282.41
2023-04-23T07:45:02.386Z,101275.97
2023-04-23T07:50:08.984Z,101257.19
2023-04-23T07:55:12.805Z,101253.69
2023-04-23T08:00:17.197Z,101235.72
2023-04-23T08:05:21.282Z,101228.88
2023-04-23T08:10:25.468Z,101230.75
2023-04-23T08:15:29.486Z,101215.44
2023-04-23T08:20:33.728Z,101218.47
2023-04-23T08:25:37.787Z,101206.75
2023-04-23T08:30:41.885Z,101162.00
2023-04-23T08:35:45.875Z,101183.13
2023-04-23T08:40:52.284Z,101190.97
2023-04-23T08:45:57.388Z,101193.84
2023-04-23T08:51:04.835Z,101187.25
2023-04-23T08:56:09.473Z,101176.75
2023-04-23T09:01:15.461Z,101167.06
2023-04-23T09:06:21.445Z,101162.88
2023-04-23T09:11:28.065Z,101154.97
2023-04-23T09:16:32.268Z,101139.59
2023-04-23T09:21:40.703Z,101153.84
2023-04-23T09:26:53.231Z,101147.09
2023-04-23T09:32:03.855Z,101128.03
2023-04-23T09:37:12.721Z,101118.34
2023-04-23T09:42:17.242Z,101102.97
2023-04-23T09:47:22.596Z,101115.56
2023-04-23T09:52:30.243Z,101088.19
2023-04-23T09:57:42.112Z,101102.75
2023-04-23T10:02:50.773Z,101101.78
2023-04-23T10:07:56.024Z,101077.13
2023-04-23T10:13:01.105Z,101028.78
2023-04-23T10:18:08.676Z,101074.13
2023-04-23T10:23:13.792Z,101064.75
2023-04-23T10:28:27.447Z,101076.03
2023-04-23T10:33:37.650Z,101062.81
2023-04-23T10:38:57.959Z,101045.25
2023-04-23T10:44:07.965Z,101048.59
2023-04-23T10:49:15.666Z,101040.97
2023-04-23T10:54:21.028Z,101033.44
2023-04-23T10:59:25.868Z,101034.75
2023-04-23T11:04:31.122Z,100968.34
2023-04-23T11:10:00.477Z,101019.81
2023-04-23T11:15:20.165Z,101024.00
2023-04-23T11:20:25.243Z,101019.34
2023-04-23T11:25:31.147Z,101006.94
2023-04-23T11:30:35.289Z,101004.41
2023-04-23T11:35:41.971Z,100992.81
2023-04-23T11:40:49.462Z,100994.50
2023-04-23T11:45:53.663Z,100933.00
2023-04-23T11:50:58.072Z,100985.41
2023-04-23T11:56:02.030Z,100975.25
2023-04-23T12:01:06.182Z,100971.34
2023-04-23T12:06:10.277Z,100976.34
2023-04-23T12:11:14.702Z,100978.09
2023-04-23T12:16:18.782Z,100963.78
2023-04-23T12:21:24.720Z,100844.03
2023-04-23T12:26:30.440Z,100900.59
2023-04-23T12:31:34.798Z,100929.63
2023-04-23T12:36:41.637Z,100939.03
2023-04-23T12:41:45.996Z,100935.78
2023-04-23T12:47:04.093Z,100933.38
2023-04-23T12:52:12.099Z,100926.38
2023-04-23T12:57:22.487Z,100937.91
2023-04-23T13:02:27.098Z,100925.63
2023-04-23T13:07:31.164Z,100915.03
2023-04-23T13:12:35.349Z,100921.31
2023-04-23T13:17:39.718Z,100922.03
2023-04-23T13:22:43.784Z,100919.50
2023-04-23T13:27:47.879Z,100914.78
2023-04-23T13:32:51.848Z,100908.66
2023-04-23T13:37:56.173Z,100899.22
2023-04-23T13:43:00.133Z,100908.66
2023-04-23T13:48:05.888Z,100912.72
2023-04-23T13:53:11.653Z,100900.72
2023-04-23T13:58:15.936Z,100902.06
2023-04-23T14:03:21.061Z,100891.72
2023-04-23T14:08:25.175Z,100902.00
2023-04-23T14:13:29.345Z,100879.34
2023-04-23T14:18:33.621Z,100807.84
2023-04-23T14:23:37.860Z,100880.78
2023-04-23T14:28:49.130Z,100884.00
2023-04-23T14:33:53.129Z,100802.22
2023-04-23T14:39:00.007Z,100866.94
2023-04-23T14:44:04.607Z,100870.56
2023-04-23T14:49:08.672Z,100864.81
2023-04-23T14:54:12.795Z,100857.06
2023-04-23T14:59:16.904Z,100831.84
2023-04-23T15:04:21.156Z,100855.28
2023-04-23T15:09:25.838Z,100859.31
2023-04-23T15:14:37.653Z,100843.56
2023-04-23T15:19:41.831Z,100845.00
2023-04-23T15:24:45.966Z,100839.13
2023-04-23T15:29:50.002Z,100825.44
2023-04-23T15:34:54.483Z,100816.63
2023-04-23T15:39:59.238Z,100806.06
2023-04-23T15:45:04.781Z,100804.47
2023-04-23T15:50:10.900Z,100799.53
2023-04-23T15:55:15.002Z,100801.03
2023-04-23T16:00:19.911Z,100793.41
2023-04-23T16:05:25.795Z,100788.88
2023-04-23T16:10:32.391Z,100781.53
2023-04-23T16:15:37.215Z,100762.53
2023-04-23T16:20:41.856Z,100772.25
2023-04-23T16:25:46.064Z,100761.00
2023-04-23T16:30:50.004Z,100732.50
2023-04-23T16:35:54.877Z,100722.88
2023-04-23T16:40:59.188Z,100735.69
2023-04-23T16:46:03.090Z,100735.19
2023-04-23T16:51:07.191Z,100664.66
2023-04-23T16:56:11.582Z,100707.53
2023-04-23T17:01:18.493Z,100713.66
2023-04-23T17:06:31.298Z,100682.22
2023-04-23T17:11:35.925Z,100715.00
2023-04-23T17:16:40.004Z,100690.94
2023-04-23T17:21:44.248Z,100689.78
2023-04-23T17:26:48.893Z,100684.16
2023-04-23T17:31:52.987Z,100668.44
2023-04-23T17:36:57.582Z,100639.00
2023-04-23T17:42:02.819Z,100658.53
2023-04-23T17:47:06.969Z,100656.13
2023-04-23T17:52:11.175Z,100648.81
2023-04-23T17:57:15.386Z,100651.50
2023-04-23T18:02:19.631Z,100642.06
2023-04-23T18:07:23.790Z,100599.19
2023-04-23T18:12:29.471Z,100628.66
2023-04-23T18:17:33.293Z,100627.16
2023-04-23T18:22:39.000Z,100620.09
2023-04-23T18:27:42.842Z,100595.31
2023-04-23T18:32:56.440Z,100609.81
2023-04-23T18:38:11.127Z,100597.09
2023-04-23T18:43:15.216Z,100590.94
2023-04-23T18:48:42.486Z,100584.94
2023-04-23T18:53:47.654Z,100575.63
2023-04-23T18:58:51.807Z,100569.13
2023-04-23T19:03:57.407Z,100577.50
2023-04-23T19:09:02.148Z,100565.00
2023-04-23T19:14:06.378Z,100564.06
2023-04-23T19:19:10.286Z,100556.13
2023-04-23T19:24:14.313Z,100552.06
2023-04-23T19:29:18.497Z,100556.75
2023-04-23T19:34:22.632Z,100547.69
2023-04-23T19:39:27.757Z,100560.41
2023-04-23T19:44:31.775Z,100540.31
2023-04-23T19:49:35.850Z,100544.59
2023-04-23T19:54:39.798Z,100536.19
2023-04-23T19:59:44.201Z,100534.63
2023-04-23T20:04:48.294Z,100522.63
2023-04-23T20:09:52.412Z,100516.91
2023-04-23T20:14:56.958Z,100506.56
2023-04-23T20:20:02.554Z,100511.16
2023-04-23T20:25:08.857Z,100500.72
2023-04-23T20:30:15.868Z,100497.06
2023-04-23T20:35:19.816Z,100484.56
2023-04-23T20:40:24.102Z,100483.72
2023-04-23T20:45:28.610Z,100449.47
2023-04-23T20:50:32.550Z,100478.41
2023-04-23T20:55:37.711Z,100451.97
2023-04-23T21:00:42.515Z,100488.44
2023-04-23T21:05:46.524Z,100470.81
2023-04-23T21:10:50.707Z,100460.38
2023-04-23T21:15:54.819Z,100466.63
2023-04-23T21:20:59.041Z,100453.94
2023-04-23T21:26:03.261Z,100448.94
2023-04-23T21:31:15.040Z,100446.63
2023-04-23T21:36:19.072Z,100442.03
2023-04-23T21:41:23.035Z,100434.66
2023-04-23T21:46:27.609Z,100411.63
2023-04-23T21:51:31.625Z,100422.09
2023-04-23T21:56:36.375Z,100416.09
2023-04-23T22:01:40.346Z,100405.28
2023-04-23T22:06:45.158Z,100399.75
2023-04-23T22:12:00.987Z,100397.00
2023-04-23T22:17:08.310Z,100399.50
2023-04-23T22:22:12.270Z,100392.47
2023-04-23T22:27:16.454Z,100382.16
2023-04-23T22:32:20.396Z,100362.13
2023-04-23T22:37:25.008Z,100376.59
2023-04-23T22:42:29.197Z,100365.13
2023-04-23T22:47:33.711Z,100298.47
2023-04-23T22:52:37.661Z,100370.94
2023-04-23T22:57:41.587Z,100361.56
2023-04-23T23:02:45.867Z,100368.66
2023-04-23T23:07:50.014Z,100352.94
2023-04-23T23:12:54.217Z,100362.50
2023-04-23T23:17:58.508Z,100294.44
2023-04-23T23:23:02.502Z,100340.47
2023-04-23T23:28:06.731Z,100314.00
2023-04-23T23:33:10.791Z,100333.59
2023-04-23T23:38:14.812Z,100322.44
2023-04-23T23:43:18.992Z,100309.56
2023-04-23T23:48:23.057Z,100286.66
2023-04-23T23:53:27.334Z,100272.44
2023-04-23T23:58:31.442Z,100249.97
